Terminal Aerodrome Forecast
Issued by NWS Omaha/Valley, NE

Home | Current Version | Previous Version | Text Only | Print | Product List | Glossary On
Versions: 1 2 3 4 5 6 7 8 9 10 11 12 13 14
000
FTUS43 KOAX 291125
TAFOMA
TAF
KOMA 291125Z 2912/3012 35003KT P6SM FEW120
     FM291500 32010KT P6SM SKC
     FM291700 31015G23KT P6SM SCT060
     FM300000 31009KT P6SM FEW070=

USA.gov is the U.S. government's official web portal to all federal, state and local government web resources and services.